Time;durP1;ratioP1;P1;durP2;ratioP2;P2;SDS_P1;SDS_P2;PMS_P1;PMS_P2;Temp;Humidity;BMP_temperature;BMP_pressure;BME280_temperature;BME280_humidity;BME280_pressure;Samples;Min_cycle;Max_cycle;Signal;HPM_P1;HPM_P2
2022/02/13 00:01:18;;;;;;;4.25;2.28;;;8.90;66.40;;;;;;5090041;28;20122;-63
2022/02/13 00:03:44;;;;;;;3.92;2.30;;;8.90;65.10;;;;;;5097350;28;20028;-63
2022/02/13 00:06:10;;;;;;;4.90;2.15;;;8.90;65.30;;;;;;5093403;28;20094;-64
2022/02/13 00:08:35;;;;;;;2.90;2.08;;;8.80;66.00;;;;;;5091114;28;20446;-63
2022/02/13 00:11:01;;;;;;;3.58;1.92;;;8.80;65.50;;;;;;5106970;28;20033;-63
2022/02/13 00:13:27;;;;;;;4.50;2.10;;;8.90;66.00;;;;;;5096501;28;20012;-63
2022/02/13 00:15:52;;;;;;;4.63;2.30;;;8.80;65.90;;;;;;5101719;28;20035;-63
2022/02/13 00:18:18;;;;;;;3.47;2.13;;;8.80;65.50;;;;;;5094426;28;20024;-63
2022/02/13 00:20:44;;;;;;;4.82;2.40;;;8.80;66.10;;;;;;5085806;28;20122;-63
2022/02/13 00:23:09;;;;;;;3.65;1.88;;;8.80;66.20;;;;;;5106552;28;20082;-63
2022/02/13 00:25:35;;;;;;;4.88;2.10;;;8.90;65.70;;;;;;5088148;28;20446;-63
2022/02/13 00:28:01;;;;;;;3.50;2.10;;;8.90;66.20;;;;;;5100144;28;20035;-63
2022/02/13 00:30:26;;;;;;;3.35;2.00;;;8.90;66.10;;;;;;5100338;28;20110;-63
2022/02/13 00:32:54;;;;;;;3.78;2.03;;;8.90;66.10;;;;;;5094473;28;20110;-63
2022/02/13 00:35:20;;;;;;;3.35;1.73;;;9.00;65.70;;;;;;5090223;28;20046;-63
2022/02/13 00:37:45;;;;;;;3.10;1.70;;;9.00;65.60;;;;;;5091626;28;20099;-63
2022/02/13 00:40:11;;;;;;;2.10;1.63;;;8.90;65.60;;;;;;5093096;28;20028;-63
2022/02/13 00:42:37;;;;;;;4.10;1.95;;;8.90;66.00;;;;;;5094287;28;20028;-63
2022/02/13 00:45:04;;;;;;;2.75;1.60;;;8.90;66.10;;;;;;5093810;28;20031;-63
2022/02/13 00:47:30;;;;;;;4.03;2.10;;;8.80;65.90;;;;;;5091770;28;20069;-63
2022/02/13 00:49:55;;;;;;;2.95;1.85;;;8.90;65.80;;;;;;5094137;28;20111;-63
2022/02/13 00:52:21;;;;;;;3.67;2.05;;;8.80;65.70;;;;;;5098269;28;20086;-63
2022/02/13 00:54:47;;;;;;;2.72;1.63;;;8.80;66.20;;;;;;5098162;28;20548;-63
2022/02/13 00:57:12;;;;;;;4.60;2.30;;;8.80;66.70;;;;;;5099374;28;20025;-63
2022/02/13 00:59:38;;;;;;;5.65;2.20;;;8.90;65.80;;;;;;5089435;28;20028;-63
2022/02/13 01:02:04;;;;;;;4.40;1.95;;;8.80;66.70;;;;;;5092811;28;20031;-63
2022/02/13 01:04:29;;;;;;;2.08;1.52;;;8.80;67.20;;;;;;5095937;28;20535;-63
2022/02/13 01:06:55;;;;;;;4.80;2.38;;;8.80;66.40;;;;;;5099164;28;20104;-63
2022/02/13 01:09:21;;;;;;;5.47;2.10;;;8.80;65.90;;;;;;5096716;28;20510;-63
2022/02/13 01:11:47;;;;;;;2.28;1.60;;;8.80;66.60;;;;;;5094556;28;20027;-63
2022/02/13 01:14:12;;;;;;;3.45;2.10;;;8.80;66.70;;;;;;5092902;28;20040;-63
2022/02/13 01:16:38;;;;;;;2.78;1.90;;;8.80;66.00;;;;;;5111566;28;20392;-63
2022/02/13 01:19:04;;;;;;;3.88;1.98;;;8.80;66.90;;;;;;5100135;28;20066;-63
2022/02/13 01:21:30;;;;;;;3.38;1.92;;;8.70;66.50;;;;;;5099513;28;20027;-63
2022/02/13 01:23:56;;;;;;;4.10;1.95;;;8.80;66.60;;;;;;5102666;28;20032;-63
2022/02/13 01:26:23;;;;;;;2.75;1.80;;;8.80;66.70;;;;;;5093492;28;20038;-63
2022/02/13 01:28:49;;;;;;;3.70;2.10;;;8.80;66.50;;;;;;5110909;28;20068;-63
2022/02/13 01:31:16;;;;;;;3.40;2.08;;;8.80;66.50;;;;;;5106654;28;20028;-63
2022/02/13 01:33:41;;;;;;;4.38;2.30;;;8.70;67.50;;;;;;5106514;28;20027;-63
2022/02/13 01:36:08;;;;;;;5.90;1.90;;;8.70;67.60;;;;;;5100982;28;20450;-63
2022/02/13 01:38:34;;;;;;;4.05;2.30;;;8.70;67.00;;;;;;5105231;28;20561;-63
2022/02/13 01:40:59;;;;;;;3.28;2.17;;;8.70;68.00;;;;;;5095567;28;20028;-63
2022/02/13 01:43:25;;;;;;;5.55;2.53;;;8.60;68.60;;;;;;5098703;28;20028;-63
2022/02/13 01:45:51;;;;;;;4.32;2.47;;;8.60;67.20;;;;;;5080864;28;20385;-63
2022/02/13 01:48:17;;;;;;;3.90;2.30;;;8.60;69.00;;;;;;5097228;28;20026;-63
2022/02/13 01:50:45;;;;;;;4.65;2.47;;;8.60;68.60;;;;;;5096568;28;20039;-63
2022/02/13 01:53:11;;;;;;;3.83;2.10;;;8.70;69.10;;;;;;5093456;28;20110;-63
2022/02/13 01:55:37;;;;;;;4.70;2.00;;;8.60;68.20;;;;;;5099456;28;20445;-63
2022/02/13 01:58:04;;;;;;;4.78;2.30;;;8.50;69.50;;;;;;5096663;28;20105;-63
2022/02/13 02:00:31;;;;;;;3.28;2.00;;;8.50;69.90;;;;;;5099171;28;20106;-63
2022/02/13 02:02:56;;;;;;;4.60;2.35;;;8.50;70.10;;;;;;5097247;28;20031;-63
2022/02/13 02:05:22;;;;;;;4.63;2.03;;;8.50;69.70;;;;;;5093170;28;20035;-63
2022/02/13 02:07:48;;;;;;;3.65;1.92;;;8.50;69.80;;;;;;5097471;28;20028;-63
2022/02/13 02:10:20;;;;;;;3.90;2.13;;;8.60;69.80;;;;;;5097301;28;20055;-63
2022/02/13 02:12:46;;;;;;;2.65;1.80;;;8.60;68.60;;;;;;5094777;28;20111;-63
2022/02/13 02:15:11;;;;;;;5.10;2.10;;;8.60;68.30;;;;;;5092293;28;20115;-63
2022/02/13 02:17:37;;;;;;;5.40;1.80;;;8.60;69.30;;;;;;5095296;28;20027;-63
2022/02/13 02:20:03;;;;;;;4.32;1.92;;;8.60;69.10;;;;;;5094267;28;20035;-63
2022/02/13 02:22:29;;;;;;;2.80;2.08;;;8.70;69.50;;;;;;5097660;28;20062;-63
2022/02/13 02:24:55;;;;;;;5.10;2.50;;;8.60;69.90;;;;;;5096805;28;20032;-63
2022/02/13 02:27:20;;;;;;;3.55;2.65;;;8.40;70.00;;;;;;5091783;28;20035;-63
2022/02/13 02:29:46;;;;;;;3.50;2.47;;;8.40;69.80;;;;;;5096842;28;20106;-63
2022/02/13 02:32:12;;;;;;;3.40;2.42;;;8.30;70.90;;;;;;5092038;28;20496;-63
2022/02/13 02:34:39;;;;;;;5.47;2.78;;;8.20;70.60;;;;;;5103926;28;20035;-63
2022/02/13 02:37:06;;;;;;;4.03;2.55;;;8.10;72.40;;;;;;5094681;28;20028;-63
2022/02/13 02:39:32;;;;;;;3.60;2.55;;;8.20;70.90;;;;;;5096382;28;20028;-63
2022/02/13 02:41:57;;;;;;;5.43;2.75;;;8.20;71.00;;;;;;5091951;28;20246;-63
2022/02/13 02:44:23;;;;;;;4.47;3.15;;;8.20;70.50;;;;;;5092043;28;20024;-63
2022/02/13 02:46:49;;;;;;;5.50;2.72;;;8.30;70.70;;;;;;5096249;28;20082;-63
2022/02/13 02:49:14;;;;;;;5.50;3.03;;;8.20;70.40;;;;;;5092063;28;20046;-63
2022/02/13 02:51:40;;;;;;;7.25;2.92;;;8.20;70.90;;;;;;5102913;28;20504;-63
2022/02/13 02:54:05;;;;;;;4.32;2.97;;;8.20;71.10;;;;;;5105409;28;20073;-63
2022/02/13 02:56:31;;;;;;;4.43;3.00;;;8.20;70.60;;;;;;5093359;28;20021;-63
2022/02/13 02:58:57;;;;;;;4.88;3.10;;;8.10;71.10;;;;;;5108851;28;20019;-63
2022/02/13 03:01:22;;;;;;;5.93;3.20;;;8.10;71.20;;;;;;5095577;28;20020;-63
2022/02/13 03:03:48;;;;;;;5.43;3.17;;;8.10;71.10;;;;;;5096125;28;20093;-63
2022/02/13 03:06:13;;;;;;;5.10;3.13;;;8.10;71.30;;;;;;5095888;28;20035;-63
2022/02/13 03:08:39;;;;;;;6.30;3.40;;;8.00;71.40;;;;;;5094521;28;20035;-63
2022/02/13 03:11:05;;;;;;;5.78;3.00;;;8.00;71.90;;;;;;5092108;28;20407;-63
2022/02/13 03:13:31;;;;;;;9.30;3.85;;;8.00;71.70;;;;;;5093974;28;20016;-63
2022/02/13 03:15:57;;;;;;;5.75;3.55;;;8.00;71.50;;;;;;5095146;28;20036;-63
2022/02/13 03:18:23;;;;;;;4.85;3.50;;;8.10;71.40;;;;;;5095511;28;20100;-63
2022/02/13 03:20:50;;;;;;;4.68;3.22;;;8.00;71.50;;;;;;5095697;28;20031;-63
2022/02/13 03:23:18;;;;;;;5.25;3.72;;;7.90;71.20;;;;;;5088113;28;20024;-63
2022/02/13 03:25:43;;;;;;;7.70;3.60;;;7.90;71.60;;;;;;5104631;28;20027;-63
2022/02/13 03:28:09;;;;;;;6.82;3.65;;;7.90;72.00;;;;;;5103049;28;20035;-63
2022/02/13 03:30:36;;;;;;;6.38;3.63;;;7.90;72.00;;;;;;5100696;28;20112;-63
2022/02/13 03:33:01;;;;;;;4.78;3.60;;;7.90;71.80;;;;;;5090470;28;20032;-63
2022/02/13 03:35:27;;;;;;;5.25;3.78;;;7.80;72.10;;;;;;5089426;28;20530;-62
2022/02/13 03:37:53;;;;;;;5.85;3.50;;;7.70;72.80;;;;;;5101730;28;20537;-62
2022/02/13 03:40:19;;;;;;;8.13;3.60;;;7.70;73.00;;;;;;5095711;28;20094;-62
2022/02/13 03:42:45;;;;;;;7.20;3.75;;;7.70;72.30;;;;;;5095236;28;20043;-62
2022/02/13 03:45:12;;;;;;;5.43;3.28;;;7.70;72.70;;;;;;5095232;28;20023;-62
2022/02/13 03:47:39;;;;;;;5.35;3.58;;;7.70;73.00;;;;;;5095211;28;20081;-62
2022/02/13 03:50:06;;;;;;;5.85;3.58;;;7.70;74.10;;;;;;5091724;28;20032;-62
2022/02/13 03:52:32;;;;;;;3.97;2.90;;;7.70;72.80;;;;;;5101192;28;20019;-62
2022/02/13 03:55:00;;;;;;;6.13;3.08;;;7.70;71.80;;;;;;5103268;28;20294;-62
2022/02/13 03:57:26;;;;;;;4.70;3.10;;;7.80;73.30;;;;;;5102191;28;20464;-62
2022/02/13 03:59:52;;;;;;;4.35;3.03;;;7.80;72.50;;;;;;5095220;28;20027;-62
2022/02/13 04:02:17;;;;;;;4.93;3.08;;;7.90;72.50;;;;;;5090443;28;20028;-63
2022/02/13 04:04:43;;;;;;;4.93;3.40;;;7.90;71.90;;;;;;5096992;28;20039;-63
2022/02/13 04:07:09;;;;;;;4.65;3.22;;;7.90;71.50;;;;;;5094437;28;20024;-63
2022/02/13 04:09:35;;;;;;;5.03;2.90;;;7.90;71.60;;;;;;5099142;28;20020;-63
2022/02/13 04:12:01;;;;;;;4.22;2.47;;;7.90;70.90;;;;;;5103093;28;20512;-63
2022/02/13 04:14:27;;;;;;;4.47;2.53;;;7.90;71.30;;;;;;5091282;28;20048;-63
2022/02/13 04:16:52;;;;;;;4.88;2.92;;;7.90;71.10;;;;;;5094341;28;20016;-63
2022/02/13 04:19:18;;;;;;;4.30;2.60;;;7.90;72.00;;;;;;5095221;28;20024;-63
2022/02/13 04:21:43;;;;;;;4.85;2.70;;;7.90;73.00;;;;;;5092978;28;20024;-63
2022/02/13 04:24:10;;;;;;;5.60;2.70;;;7.90;72.10;;;;;;5094155;28;20032;-63
2022/02/13 04:26:35;;;;;;;3.70;2.63;;;7.80;72.10;;;;;;5089585;28;20121;-63
2022/02/13 04:29:01;;;;;;;5.22;2.80;;;7.90;71.90;;;;;;5106836;28;20024;-63
2022/02/13 04:31:27;;;;;;;4.05;2.75;;;7.90;73.30;;;;;;5091112;28;20027;-63
2022/02/13 04:33:52;;;;;;;6.90;2.92;;;7.90;72.80;;;;;;5092326;28;20093;-63
2022/02/13 04:36:18;;;;;;;3.55;2.33;;;8.00;72.20;;;;;;5092054;28;20020;-63
2022/02/13 04:38:43;;;;;;;3.97;2.40;;;8.00;72.20;;;;;;5092111;28;20515;-63
2022/02/13 04:41:09;;;;;;;3.05;2.25;;;8.00;72.50;;;;;;5098923;28;20093;-63
2022/02/13 04:43:35;;;;;;;5.55;2.50;;;8.10;72.90;;;;;;5096508;28;20139;-63
2022/02/13 04:46:00;;;;;;;8.45;2.92;;;8.10;72.50;;;;;;5091065;28;20050;-63
2022/02/13 04:48:26;;;;;;;5.82;2.97;;;8.10;73.30;;;;;;5094665;28;20043;-63
2022/02/13 04:50:51;;;;;;;4.78;3.00;;;8.10;74.60;;;;;;5098207;28;20093;-63
2022/02/13 04:53:17;;;;;;;4.50;2.50;;;8.00;73.70;;;;;;5094409;28;20032;-63
2022/02/13 04:55:43;;;;;;;4.68;2.42;;;8.00;73.60;;;;;;5091673;28;20024;-63
2022/02/13 04:58:08;;;;;;;4.18;2.50;;;8.00;73.90;;;;;;5098204;28;20088;-63
2022/02/13 05:00:34;;;;;;;4.65;2.53;;;8.00;74.20;;;;;;5100554;28;20019;-63
2022/02/13 05:02:59;;;;;;;5.53;2.40;;;7.90;75.00;;;;;;5093381;28;20036;-63
2022/02/13 05:05:25;;;;;;;3.53;2.20;;;8.00;75.10;;;;;;5094422;28;20024;-63
2022/02/13 05:07:51;;;;;;;3.53;2.10;;;7.90;74.00;;;;;;5098161;28;20099;-63
2022/02/13 05:10:16;;;;;;;2.58;2.00;;;7.80;74.00;;;;;;5100638;28;20043;-63
2022/02/13 05:12:42;;;;;;;3.50;2.40;;;7.90;73.90;;;;;;5097803;28;20047;-63
2022/02/13 05:15:08;;;;;;;2.58;1.83;;;7.90;75.00;;;;;;5093862;28;20056;-63
2022/02/13 05:17:35;;;;;;;3.03;1.92;;;7.80;73.80;;;;;;5095527;28;20116;-63
2022/02/13 05:20:02;;;;;;;5.43;2.45;;;7.80;75.40;;;;;;5095080;28;20066;-63
2022/02/13 05:22:28;;;;;;;3.88;2.30;;;7.80;76.20;;;;;;5093634;28;20020;-63
2022/02/13 05:24:53;;;;;;;3.45;2.20;;;7.90;74.70;;;;;;5097777;28;20546;-63
2022/02/13 05:27:19;;;;;;;3.90;2.53;;;7.90;74.60;;;;;;5097569;28;20452;-63
2022/02/13 05:29:44;;;;;;;4.05;2.35;;;7.90;74.30;;;;;;5104180;28;20084;-63
2022/02/13 05:32:10;;;;;;;6.50;2.33;;;7.80;75.40;;;;;;5093654;28;20060;-63
2022/02/13 05:34:36;;;;;;;3.42;2.00;;;7.70;74.90;;;;;;5099473;28;20052;-64
2022/02/13 05:37:03;;;;;;;3.80;2.50;;;7.80;75.00;;;;;;5097450;28;20058;-63
2022/02/13 05:39:28;;;;;;;4.13;2.60;;;7.80;73.90;;;;;;5097521;28;20028;-63
2022/02/13 05:41:54;;;;;;;2.72;2.20;;;7.70;74.60;;;;;;5096537;28;20031;-63
2022/02/13 05:44:20;;;;;;;3.15;2.45;;;7.70;74.60;;;;;;5085385;28;20489;-63
2022/02/13 05:46:45;;;;;;;4.28;2.13;;;7.70;75.70;;;;;;5098758;28;20400;-63
2022/02/13 05:49:11;;;;;;;4.13;2.40;;;7.70;76.10;;;;;;5096642;28;20393;-64
2022/02/13 05:51:37;;;;;;;4.57;2.17;;;7.70;75.90;;;;;;5092321;28;20063;-63
2022/02/13 05:54:03;;;;;;;3.42;2.15;;;7.70;75.30;;;;;;5097238;28;20476;-63
2022/02/13 05:56:28;;;;;;;3.63;2.30;;;7.70;75.30;;;;;;5094104;28;20016;-63
2022/02/13 05:58:54;;;;;;;3.45;2.13;;;7.70;77.30;;;;;;5095662;28;20060;-63
2022/02/13 06:01:20;;;;;;;3.65;1.83;;;7.80;76.10;;;;;;5097946;28;20026;-63
2022/02/13 06:03:46;;;;;;;3.28;1.90;;;7.70;76.00;;;;;;5100158;28;20093;-63
2022/02/13 06:06:12;;;;;;;5.15;2.28;;;7.70;76.50;;;;;;5099955;28;20032;-63
2022/02/13 06:08:39;;;;;;;3.00;2.00;;;7.70;76.20;;;;;;5092185;28;20785;-63
2022/02/13 06:11:05;;;;;;;2.58;1.70;;;7.80;75.60;;;;;;5104076;28;20496;-63
2022/02/13 06:13:31;;;;;;;3.72;2.05;;;7.70;76.40;;;;;;5098399;28;20020;-63
2022/02/13 06:15:58;;;;;;;4.40;1.90;;;7.60;76.80;;;;;;5101904;28;20030;-63
2022/02/13 06:18:24;;;;;;;3.58;2.10;;;7.50;76.70;;;;;;5100812;28;20365;-63
2022/02/13 06:20:50;;;;;;;3.22;1.80;;;7.50;77.30;;;;;;5103893;28;20495;-63
2022/02/13 06:23:15;;;;;;;4.13;1.88;;;7.50;76.40;;;;;;5092726;28;20017;-63
2022/02/13 06:25:41;;;;;;;3.22;2.05;;;7.70;76.00;;;;;;5098279;28;20032;-63
2022/02/13 06:28:07;;;;;;;3.20;1.77;;;7.70;75.70;;;;;;5096405;28;20396;-63
2022/02/13 06:30:33;;;;;;;2.70;1.83;;;7.70;76.50;;;;;;5098149;28;20476;-63
2022/02/13 06:32:59;;;;;;;3.67;2.15;;;7.70;75.80;;;;;;5106465;28;20035;-63
2022/02/13 06:35:29;;;;;;;2.17;1.70;;;7.70;76.10;;;;;;5092758;28;20031;-63
2022/02/13 06:37:55;;;;;;;3.35;1.80;;;7.70;75.90;;;;;;5094402;28;20024;-63
2022/02/13 06:40:21;;;;;;;2.10;1.52;;;7.80;76.20;;;;;;5097058;28;20073;-63
2022/02/13 06:42:46;;;;;;;3.72;2.25;;;7.80;75.60;;;;;;5096170;28;20107;-63
2022/02/13 06:45:12;;;;;;;3.53;2.25;;;7.70;75.30;;;;;;5094898;28;20023;-63
2022/02/13 06:47:38;;;;;;;3.58;1.73;;;7.70;75.40;;;;;;5104335;28;20070;-63
2022/02/13 06:50:04;;;;;;;2.17;1.73;;;7.70;74.90;;;;;;5092935;28;20488;-63
2022/02/13 06:52:30;;;;;;;4.70;1.90;;;7.80;74.60;;;;;;5111477;28;20106;-63
2022/02/13 06:54:56;;;;;;;3.30;1.80;;;7.80;74.80;;;;;;5098633;28;20114;-63
2022/02/13 06:57:21;;;;;;;3.92;1.90;;;7.70;75.10;;;;;;5091592;28;20032;-63
2022/02/13 06:59:47;;;;;;;3.13;1.63;;;7.70;74.70;;;;;;5095531;28;20510;-63
2022/02/13 07:02:14;;;;;;;4.35;2.10;;;7.50;75.40;;;;;;5091205;28;20032;-63
2022/02/13 07:04:39;;;;;;;2.65;2.15;;;7.50;75.60;;;;;;5097809;28;20024;-63
2022/02/13 07:07:06;;;;;;;3.25;2.10;;;7.40;75.00;;;;;;5095679;28;20085;-63
2022/02/13 07:09:32;;;;;;;3.55;2.30;;;7.30;75.90;;;;;;5095145;28;20097;-63
2022/02/13 07:12:04;;;;;;;2.75;1.90;;;7.20;76.40;;;;;;5095388;28;20110;-63
2022/02/13 07:14:31;;;;;;;3.65;2.10;;;7.00;75.70;;;;;;5093885;28;20066;-63
2022/02/13 07:16:57;;;;;;;2.80;1.83;;;6.90;76.30;;;;;;5094064;28;20438;-63
2022/02/13 07:19:22;;;;;;;3.40;2.00;;;6.90;76.10;;;;;;5095321;28;20047;-63
2022/02/13 07:21:48;;;;;;;2.88;1.80;;;6.80;76.20;;;;;;5095688;28;20035;-63
2022/02/13 07:24:14;;;;;;;2.95;1.90;;;6.80;76.30;;;;;;5095751;28;20492;-64
2022/02/13 07:26:39;;;;;;;3.17;2.13;;;6.70;76.10;;;;;;5090903;28;20039;-63
2022/02/13 07:29:08;;;;;;;2.92;2.15;;;6.80;76.30;;;;;;5092784;28;20035;-63
2022/02/13 07:31:35;;;;;;;3.10;2.20;;;6.70;76.30;;;;;;5082209;28;20054;-63
2022/02/13 07:34:01;;;;;;;3.67;2.10;;;6.70;76.20;;;;;;5103047;28;20075;-63
2022/02/13 07:36:28;;;;;;;2.65;1.80;;;6.80;76.20;;;;;;5096331;28;20028;-63
2022/02/13 07:38:54;;;;;;;4.43;1.65;;;6.80;75.80;;;;;;5091475;28;20028;-63
2022/02/13 07:41:20;;;;;;;3.80;2.03;;;6.70;75.50;;;;;;5090848;28;20054;-63
2022/02/13 07:43:45;;;;;;;2.13;1.70;;;6.80;75.80;;;;;;5097136;28;20039;-63
2022/02/13 07:46:12;;;;;;;3.33;2.15;;;6.80;75.70;;;;;;5094718;28;20097;-63
2022/02/13 07:48:37;;;;;;;3.22;2.10;;;6.90;75.80;;;;;;5095065;28;20020;-63
2022/02/13 07:51:04;;;;;;;3.78;1.95;;;6.90;75.20;;;;;;5094662;28;20035;-63
2022/02/13 07:53:30;;;;;;;3.47;2.05;;;6.90;75.50;;;;;;5091693;28;20477;-63
2022/02/13 07:55:55;;;;;;;3.28;1.90;;;7.00;75.80;;;;;;5094486;28;20528;-63
2022/02/13 07:58:21;;;;;;;3.20;2.03;;;7.10;75.20;;;;;;5099636;28;20027;-63
2022/02/13 08:00:47;;;;;;;3.45;2.10;;;7.50;76.10;;;;;;5092909;28;20035;-63
2022/02/13 08:03:12;;;;;;;3.65;2.10;;;7.70;75.00;;;;;;5094947;28;20107;-63
2022/02/13 08:05:39;;;;;;;2.80;2.10;;;7.90;74.30;;;;;;5089311;28;20035;-63
2022/02/13 08:08:05;;;;;;;3.17;2.08;;;8.20;74.00;;;;;;5090844;28;20036;-63
2022/02/13 08:10:31;;;;;;;2.80;1.88;;;8.50;73.60;;;;;;5091286;28;20009;-63
2022/02/13 08:12:57;;;;;;;3.13;1.88;;;8.60;73.10;;;;;;5090986;28;20036;-63
2022/02/13 08:15:23;;;;;;;3.22;1.67;;;8.60;71.70;;;;;;5088060;28;20463;-63
2022/02/13 08:17:49;;;;;;;4.10;2.17;;;8.60;71.20;;;;;;5089550;28;20068;-63
2022/02/13 08:20:15;;;;;;;2.65;1.80;;;8.50;71.90;;;;;;5088003;28;20069;-63
2022/02/13 08:22:41;;;;;;;3.33;1.80;;;8.60;72.00;;;;;;5086691;28;20043;-63
2022/02/13 08:25:08;;;;;;;2.25;1.63;;;8.70;72.30;;;;;;5094989;28;20016;-63
2022/02/13 08:27:34;;;;;;;3.85;1.95;;;8.80;71.80;;;;;;5095222;28;20566;-63
2022/02/13 08:30:00;;;;;;;3.67;2.13;;;8.70;71.90;;;;;;5102342;28;20035;-63
2022/02/13 08:32:26;;;;;;;3.65;2.30;;;8.60;71.80;;;;;;5099757;28;20024;-63
2022/02/13 08:34:53;;;;;;;3.53;2.10;;;8.70;71.90;;;;;;5099069;28;20074;-63
2022/02/13 08:37:19;;;;;;;3.30;2.05;;;8.60;72.20;;;;;;5107216;28;20031;-63
2022/02/13 08:39:45;;;;;;;4.05;2.20;;;8.70;72.20;;;;;;5097287;28;20077;-63
2022/02/13 08:42:11;;;;;;;4.55;2.38;;;8.70;72.50;;;;;;5098039;28;20692;-63
2022/02/13 08:44:37;;;;;;;3.72;2.20;;;8.80;72.70;;;;;;5102844;28;20408;-63
2022/02/13 08:47:03;;;;;;;4.38;2.30;;;8.80;72.10;;;;;;5104166;28;20028;-63
2022/02/13 08:49:29;;;;;;;3.67;1.92;;;8.70;72.70;;;;;;5109519;28;20495;-62
2022/02/13 08:51:54;;;;;;;2.85;2.15;;;8.70;72.50;;;;;;5095049;28;20105;-63
2022/02/13 08:54:20;;;;;;;2.28;1.73;;;8.70;72.80;;;;;;5098982;28;20049;-62
2022/02/13 08:56:46;;;;;;;5.75;2.30;;;8.70;72.70;;;;;;5103318;28;20028;-63
2022/02/13 08:59:11;;;;;;;3.13;2.33;;;8.80;72.70;;;;;;5099865;28;20024;-63
2022/02/13 09:01:37;;;;;;;4.60;2.15;;;8.80;72.60;;;;;;5096905;28;20051;-63
2022/02/13 09:04:03;;;;;;;4.25;2.10;;;8.80;72.20;;;;;;5095796;28;20519;-63
2022/02/13 09:06:29;;;;;;;5.07;2.50;;;8.80;72.30;;;;;;5096824;28;20445;-62
2022/02/13 09:08:54;;;;;;;5.07;3.22;;;8.80;73.20;;;;;;5101922;28;20011;-63
2022/02/13 09:11:20;;;;;;;4.13;2.08;;;8.70;73.90;;;;;;5090752;28;20028;-63
2022/02/13 09:13:45;;;;;;;3.53;2.15;;;8.80;74.10;;;;;;5093059;28;20052;-63
2022/02/13 09:16:11;;;;;;;2.95;2.40;;;8.90;73.50;;;;;;5097143;28;20030;-63
2022/02/13 09:18:37;;;;;;;3.58;2.28;;;8.90;73.40;;;;;;5094261;28;20113;-62
2022/02/13 09:21:03;;;;;;;4.00;2.30;;;8.90;73.90;;;;;;5093403;28;20031;-63
2022/02/13 09:23:29;;;;;;;6.10;2.60;;;8.90;73.70;;;;;;5090927;28;20043;-63
2022/02/13 09:25:55;;;;;;;4.55;2.60;;;8.90;73.70;;;;;;5094091;28;20032;-63
2022/02/13 09:28:20;;;;;;;3.58;2.22;;;8.90;73.50;;;;;;5094445;28;20378;-63
2022/02/13 09:30:48;;;;;;;5.10;2.60;;;8.90;73.80;;;;;;5100425;28;20077;-63
2022/02/13 09:33:16;;;;;;;3.22;2.20;;;9.10;74.10;;;;;;5104457;28;20501;-63
2022/02/13 09:35:42;;;;;;;4.45;2.83;;;9.10;74.00;;;;;;5095712;28;20038;-63
2022/02/13 09:38:09;;;;;;;4.03;2.50;;;9.10;73.30;;;;;;5094154;28;20027;-63
2022/02/13 09:40:35;;;;;;;3.53;2.60;;;9.10;73.60;;;;;;5099456;28;20016;-63
2022/02/13 09:43:04;;;;;;;5.05;3.00;;;9.10;74.70;;;;;;5102977;28;20039;-63
2022/02/13 09:45:30;;;;;;;6.22;2.95;;;9.20;74.60;;;;;;5097580;28;20046;-63
2022/02/13 09:48:02;;;;;;;3.97;2.30;;;9.30;74.50;;;;;;5094049;28;20147;-64
2022/02/13 09:50:28;;;;;;;8.07;3.63;;;9.50;73.60;;;;;;5083249;28;20063;-63
2022/02/13 09:52:56;;;;;;;4.60;2.38;;;9.50;73.10;;;;;;5104700;28;20053;-64
2022/02/13 09:55:25;;;;;;;5.00;3.13;;;9.50;73.50;;;;;;5110647;28;20055;-63
2022/02/13 09:58:00;;;;;;;5.55;2.92;;;9.40;73.50;;;;;;5101301;28;20036;-63
2022/02/13 10:00:59;;;;;;;6.68;3.30;;;9.30;74.40;;;;;;5100066;28;20053;-62
2022/02/13 10:03:28;;;;;;;6.28;3.33;;;9.20;74.10;;;;;;5104547;28;20109;-63
2022/02/13 10:05:58;;;;;;;5.03;3.20;;;9.20;75.00;;;;;;5095198;28;20028;-63
2022/02/13 10:08:37;;;;;;;4.07;2.85;;;9.30;75.10;;;;;;5078984;28;20039;-63
2022/02/13 10:11:21;;;;;;;4.75;3.22;;;9.40;74.70;;;;;;5095630;28;20034;-63
2022/02/13 10:13:55;;;;;;;5.32;3.13;;;9.40;75.70;;;;;;5098474;28;20519;-63
2022/02/13 10:16:26;;;;;;;4.55;2.80;;;9.40;74.60;;;;;;5107382;28;20039;-63
2022/02/13 10:19:03;;;;;;;5.43;2.90;;;9.40;75.10;;;;;;5100834;28;20029;-63
2022/02/13 10:21:38;;;;;;;5.22;3.00;;;9.50;75.00;;;;;;5093284;28;20019;-63
2022/02/13 10:24:15;;;;;;;5.75;3.50;;;9.50;75.10;;;;;;5101637;28;20030;-63
2022/02/13 10:26:43;;;;;;;4.88;3.30;;;9.60;75.40;;;;;;5085935;28;20032;-63
2022/02/13 10:29:09;;;;;;;5.03;3.67;;;9.60;74.80;;;;;;5102472;28;20036;-63
2022/02/13 10:31:35;;;;;;;6.47;3.78;;;9.60;76.30;;;;;;5108171;28;20026;-63
2022/02/13 10:34:01;;;;;;;6.05;3.55;;;9.60;77.00;;;;;;5116027;27;20508;-64
2022/02/13 10:36:28;;;;;;;5.50;3.92;;;9.70;76.60;;;;;;5100767;28;20458;-64
2022/02/13 10:38:54;;;;;;;5.43;3.35;;;9.70;76.70;;;;;;5108300;28;20031;-64
2022/02/13 10:41:21;;;;;;;5.07;3.20;;;9.80;76.90;;;;;;5107426;28;20107;-64
2022/02/13 10:43:50;;;;;;;5.72;3.80;;;9.80;76.00;;;;;;5104648;28;20024;-64
2022/02/13 10:46:17;;;;;;;4.32;3.47;;;9.80;77.20;;;;;;5100500;28;20028;-64
2022/02/13 10:48:45;;;;;;;6.88;3.45;;;9.80;75.80;;;;;;5095851;28;20485;-64
2022/02/13 10:51:11;;;;;;;8.20;4.00;;;9.80;76.40;;;;;;5097625;28;20031;-64
2022/02/13 10:53:37;;;;;;;4.55;3.22;;;9.80;78.10;;;;;;5094341;28;20047;-64
2022/02/13 10:56:03;;;;;;;5.95;3.65;;;9.90;77.20;;;;;;5100324;28;20400;-64
2022/02/13 10:58:31;;;;;;;6.40;3.42;;;9.80;77.90;;;;;;5101289;28;20046;-64
2022/02/13 11:00:59;;;;;;;4.90;3.15;;;10.00;77.40;;;;;;5101538;28;20037;-64
2022/02/13 11:03:25;;;;;;;4.85;3.45;;;10.00;77.10;;;;;;5097666;28;20031;-64
2022/02/13 11:05:53;;;;;;;6.95;3.88;;;10.00;77.80;;;;;;5106289;28;20090;-68
2022/02/13 11:08:20;;;;;;;6.53;4.40;;;10.00;78.70;;;;;;5108214;28;20035;-69
2022/02/13 11:10:51;;;;;;;9.18;4.22;;;10.00;77.50;;;;;;5091118;28;20040;-68
2022/02/13 11:13:30;;;;;;;6.43;4.38;;;10.00;77.30;;;;;;5087749;28;20042;-68
2022/02/13 11:15:56;;;;;;;7.82;4.20;;;10.00;77.20;;;;;;5094639;28;20507;-68
2022/02/13 11:18:31;;;;;;;7.43;4.20;;;10.00;77.20;;;;;;5098714;28;20023;-68
2022/02/13 11:20:58;;;;;;;7.50;4.30;;;9.90;76.80;;;;;;5104918;28;20514;-68
2022/02/13 11:23:26;;;;;;;5.13;3.60;;;9.90;78.10;;;;;;5098367;28;20024;-68
2022/02/13 11:26:00;;;;;;;6.70;3.88;;;9.90;77.90;;;;;;5095649;28;20085;-69
2022/02/13 11:28:52;;;;;;;5.90;4.10;;;10.00;78.30;;;;;;5097821;28;20023;-67
2022/02/13 11:31:39;;;;;;;6.07;4.13;;;10.00;77.30;;;;;;5105799;28;20028;-68
2022/02/13 11:34:25;;;;;;;6.80;4.30;;;9.90;79.20;;;;;;5098581;28;20035;-68
2022/02/13 11:36:53;;;;;;;5.97;4.25;;;9.90;78.70;;;;;;5096567;28;20071;-68
2022/02/13 11:39:33;;;;;;;6.70;4.60;;;9.80;78.40;;;;;;5096064;28;20489;-68
2022/02/13 11:42:04;;;;;;;5.55;4.18;;;9.80;80.00;;;;;;5085482;28;20030;-68
2022/02/13 11:44:37;;;;;;;6.13;4.43;;;9.90;78.50;;;;;;5094759;28;20557;-67
2022/02/13 11:47:30;;;;;;;6.20;4.22;;;9.90;78.90;;;;;;5092087;28;20028;-68
2022/02/13 11:50:05;;;;;;;8.40;4.60;;;9.90;78.90;;;;;;5111087;27;20031;-68
2022/02/13 11:52:32;;;;;;;7.22;4.15;;;10.00;78.60;;;;;;5094638;28;20016;-68
2022/02/13 11:54:59;;;;;;;7.22;4.82;;;10.00;79.70;;;;;;5088362;28;20058;-68
2022/02/13 11:57:29;;;;;;;7.90;4.93;;;10.00;79.00;;;;;;5059012;28;20017;-68
2022/02/13 11:59:55;;;;;;;9.10;4.63;;;10.00;79.20;;;;;;5078671;28;20023;-68
2022/02/13 12:02:36;;;;;;;7.15;4.25;;;10.10;79.10;;;;;;5074635;28;20016;-68
2022/02/13 12:05:07;;;;;;;7.97;4.72;;;10.10;81.20;;;;;;5074364;28;20050;-68
2022/02/13 12:07:34;;;;;;;7.50;4.57;;;10.20;79.30;;;;;;5089158;28;20032;-68
2022/02/13 12:10:00;;;;;;;6.30;4.40;;;10.30;81.00;;;;;;5082766;28;20031;-70
2022/02/13 12:12:26;;;;;;;6.53;4.53;;;10.40;78.60;;;;;;5087352;28;20480;-70
2022/02/13 12:14:52;;;;;;;8.00;4.88;;;10.50;79.10;;;;;;5073978;28;20035;-70
2022/02/13 12:17:29;;;;;;;9.07;4.85;;;10.60;79.90;;;;;;5089528;28;20102;-70
2022/02/13 12:20:03;;;;;;;9.52;4.78;;;10.70;79.50;;;;;;5069793;28;20107;-71
2022/02/13 12:22:30;;;;;;;7.10;4.50;;;10.70;80.40;;;;;;5089055;28;20024;-71
2022/02/13 12:24:58;;;;;;;8.63;4.85;;;10.80;80.00;;;;;;5072692;28;20031;-71
2022/02/13 12:27:24;;;;;;;8.10;4.80;;;10.90;78.50;;;;;;5094888;28;20030;-71
2022/02/13 12:29:54;;;;;;;9.07;4.47;;;10.90;80.10;;;;;;5088165;28;20020;-70
2022/02/13 12:32:25;;;;;;;8.35;4.68;;;11.00;79.40;;;;;;5081401;28;20031;-66
2022/02/13 12:34:51;;;;;;;9.13;4.45;;;10.90;80.20;;;;;;5089829;28;20515;-65
2022/02/13 12:37:17;;;;;;;6.68;4.53;;;11.00;79.70;;;;;;5087752;28;20032;-66
2022/02/13 12:39:48;;;;;;;8.23;4.53;;;11.10;79.70;;;;;;5087496;28;20032;-66
2022/02/13 12:42:31;;;;;;;7.93;4.80;;;11.10;80.20;;;;;;5084340;28;20408;-68
2022/02/13 12:44:59;;;;;;;8.60;4.63;;;11.20;79.20;;;;;;5084217;28;20033;-68
2022/02/13 12:47:27;;;;;;;7.95;4.30;;;11.40;79.80;;;;;;5071036;28;20090;-67
2022/02/13 12:49:52;;;;;;;7.90;4.57;;;11.40;79.00;;;;;;5089836;28;20020;-67
2022/02/13 12:52:21;;;;;;;7.18;4.03;;;11.50;78.40;;;;;;5088403;28;20043;-68
2022/02/13 12:54:47;;;;;;;6.95;4.32;;;11.50;78.10;;;;;;5087690;28;20024;-67